Time;durP1;ratioP1;P1;durP2;ratioP2;P2;SDS_P1;SDS_P2;PMS_P1;PMS_P2;Temp;Humidity;BMP_temperature;BMP_pressure;BME280_temperature;BME280_humidity;BME280_pressure;Samples;Min_cycle;Max_cycle;Signal;HPM_P1;HPM_P2
2022/03/20 00:02:04;;;;;;;9.93;2.90;;;20.80;55.90;;;;;;4989069;28;20193;-56
2022/03/20 00:04:35;;;;;;;9.63;2.97;;;20.90;55.90;;;;;;4988942;28;20198;-55
2022/03/20 00:07:11;;;;;;;8.70;2.92;;;20.90;55.90;;;;;;4988232;28;20225;-56
2022/03/20 00:09:41;;;;;;;9.77;2.90;;;20.90;55.90;;;;;;4988358;28;20233;-55
2022/03/20 00:12:14;;;;;;;8.18;2.67;;;21.00;55.90;;;;;;4988934;28;20197;-59
2022/03/20 00:14:45;;;;;;;6.70;2.30;;;21.00;56.00;;;;;;4988089;28;20198;-53
2022/03/20 00:17:15;;;;;;;5.20;2.00;;;21.00;55.70;;;;;;4988291;28;20226;-55
2022/03/20 00:19:46;;;;;;;6.35;1.90;;;21.00;55.60;;;;;;4988621;28;20209;-55
2022/03/20 00:22:17;;;;;;;4.18;1.98;;;21.00;55.60;;;;;;4989039;28;20190;-56
2022/03/20 00:24:48;;;;;;;4.55;1.80;;;21.10;55.60;;;;;;4988146;28;20194;-56
2022/03/20 00:27:23;;;;;;;4.93;1.80;;;21.10;55.60;;;;;;4988695;28;20245;-55
2022/03/20 00:29:54;;;;;;;3.83;1.92;;;21.10;55.60;;;;;;4988387;28;20197;-56
2022/03/20 00:32:25;;;;;;;5.45;1.90;;;21.10;55.50;;;;;;4988520;28;20189;-53
2022/03/20 00:34:59;;;;;;;6.75;2.20;;;21.20;55.50;;;;;;4988267;28;20252;-54
2022/03/20 00:37:30;;;;;;;6.43;2.45;;;21.10;55.70;;;;;;4987852;28;20729;-53
2022/03/20 00:40:00;;;;;;;6.10;2.15;;;21.20;55.70;;;;;;4987810;28;20197;-55
2022/03/20 00:42:33;;;;;;;6.03;2.05;;;21.20;55.60;;;;;;4987595;28;20248;-52
2022/03/20 00:45:04;;;;;;;4.18;1.90;;;21.20;55.60;;;;;;4987549;28;20245;-55
2022/03/20 00:47:35;;;;;;;4.90;1.85;;;21.30;55.50;;;;;;4988081;28;20240;-56
2022/03/20 00:50:06;;;;;;;7.57;1.88;;;21.20;55.50;;;;;;4988253;28;20206;-55
2022/03/20 00:52:36;;;;;;;5.93;2.03;;;21.30;55.40;;;;;;4987591;28;20194;-56
2022/03/20 00:55:07;;;;;;;3.72;1.90;;;21.30;55.30;;;;;;4987415;28;20194;-56
2022/03/20 00:57:40;;;;;;;5.90;1.80;;;21.30;55.70;;;;;;4987836;28;20692;-56
2022/03/20 01:00:12;;;;;;;4.60;1.83;;;21.30;55.30;;;;;;4988289;28;20197;-56
2022/03/20 01:02:43;;;;;;;3.40;1.83;;;21.40;55.30;;;;;;4989238;28;20646;-54
2022/03/20 01:05:14;;;;;;;4.15;1.80;;;21.40;55.20;;;;;;4988373;28;20287;-55
2022/03/20 01:07:45;;;;;;;6.32;1.65;;;21.40;55.20;;;;;;4988979;28;20229;-55
2022/03/20 01:10:16;;;;;;;3.78;1.73;;;21.40;55.10;;;;;;4985607;23;20225;-58
2022/03/20 01:12:48;;;;;;;5.45;2.05;;;21.50;55.10;;;;;;4969674;28;20202;-58
2022/03/20 01:15:19;;;;;;;5.03;1.70;;;21.50;55.10;;;;;;4968833;28;20261;-58
2022/03/20 01:17:49;;;;;;;2.63;1.60;;;21.50;55.00;;;;;;4986042;28;20218;-58
2022/03/20 01:20:20;;;;;;;3.15;1.58;;;21.60;55.00;;;;;;4988823;28;20206;-58
2022/03/20 01:22:51;;;;;;;3.40;1.77;;;21.60;55.00;;;;;;4988983;28;20198;-58
2022/03/20 01:25:22;;;;;;;3.78;1.73;;;21.60;54.90;;;;;;4989025;28;20288;-58
2022/03/20 01:27:54;;;;;;;4.03;1.58;;;21.60;54.80;;;;;;4988366;28;20229;-58
2022/03/20 01:30:25;;;;;;;3.28;1.70;;;21.70;54.80;;;;;;4988339;28;20661;-55
2022/03/20 01:32:56;;;;;;;4.25;1.40;;;21.70;54.70;;;;;;4988108;28;20334;-58
2022/03/20 01:35:26;;;;;;;4.15;1.60;;;21.70;54.60;;;;;;4988459;28;20190;-57
2022/03/20 01:37:57;;;;;;;6.85;1.88;;;21.70;54.60;;;;;;4990359;28;20221;-55
2022/03/20 01:40:28;;;;;;;3.42;1.45;;;21.70;54.70;;;;;;4991509;28;20197;-53
2022/03/20 01:43:00;;;;;;;2.08;1.42;;;21.70;54.80;;;;;;4991667;28;20206;-55
2022/03/20 01:45:31;;;;;;;3.58;1.30;;;21.80;54.80;;;;;;4991798;28;20321;-55
2022/03/20 01:48:02;;;;;;;4.47;1.70;;;21.80;54.80;;;;;;4991792;28;20296;-53
2022/03/20 01:50:33;;;;;;;5.32;1.58;;;21.80;54.90;;;;;;4991977;28;20198;-55
2022/03/20 01:53:04;;;;;;;2.65;1.38;;;21.80;54.80;;;;;;4991341;28;20194;-56
2022/03/20 01:55:35;;;;;;;4.25;1.52;;;21.90;54.80;;;;;;4991631;28;20207;-55
2022/03/20 01:58:07;;;;;;;2.55;1.50;;;21.90;54.80;;;;;;4992048;28;20209;-55
2022/03/20 02:00:38;;;;;;;2.17;1.48;;;21.90;54.80;;;;;;4991001;28;20197;-55
2022/03/20 02:03:09;;;;;;;1.88;1.30;;;21.90;54.70;;;;;;4992222;28;20604;-55
2022/03/20 02:05:39;;;;;;;3.63;1.30;;;22.00;54.80;;;;;;4991046;28;20244;-55
2022/03/20 02:10:52;;;;;;;1.98;1.10;;;22.00;54.60;;;;;;4950551;29;20225;-54
2022/03/20 02:13:26;;;;;;;3.55;1.50;;;22.10;54.60;;;;;;4952877;28;20648;-56
2022/03/20 02:15:57;;;;;;;3.53;1.55;;;22.10;54.50;;;;;;4952077;28;20199;-57
2022/03/20 02:18:28;;;;;;;2.60;1.33;;;22.10;54.50;;;;;;4952398;28;20714;-55
2022/03/20 02:20:59;;;;;;;2.90;1.30;;;22.20;54.40;;;;;;4952785;28;20202;-57
2022/03/20 02:23:34;;;;;;;3.40;1.40;;;22.20;54.40;;;;;;4952408;28;20265;-57
2022/03/20 02:26:05;;;;;;;3.70;1.55;;;22.20;54.40;;;;;;4952727;28;20194;-55
2022/03/20 02:28:35;;;;;;;2.00;1.38;;;22.30;54.30;;;;;;4951599;28;20277;-58
2022/03/20 02:31:07;;;;;;;3.22;1.40;;;22.30;54.30;;;;;;4952361;29;20203;-57
2022/03/20 02:33:39;;;;;;;2.55;1.20;;;22.30;54.20;;;;;;4951606;28;20282;-55
2022/03/20 02:36:10;;;;;;;2.47;1.30;;;22.30;54.10;;;;;;4952059;28;20262;-56
2022/03/20 02:38:43;;;;;;;2.33;1.27;;;22.40;54.10;;;;;;4952110;28;20207;-57
2022/03/20 02:41:16;;;;;;;2.03;1.10;;;22.40;54.00;;;;;;4951541;29;20254;-58
2022/03/20 02:43:56;;;;;;;1.58;1.23;;;22.40;54.00;;;;;;4951038;28;20209;-58
2022/03/20 02:46:27;;;;;;;1.90;1.10;;;22.50;54.10;;;;;;4951623;28;20262;-57
2022/03/20 02:48:58;;;;;;;3.92;1.42;;;22.50;54.00;;;;;;4950648;28;20222;-57
2022/03/20 02:51:28;;;;;;;1.65;1.08;;;22.50;53.90;;;;;;4951402;28;20273;-59
2022/03/20 02:54:01;;;;;;;3.65;1.50;;;22.50;53.90;;;;;;4952450;28;20674;-56
2022/03/20 02:56:33;;;;;;;2.17;1.40;;;22.60;53.90;;;;;;4951255;28;20219;-57
2022/03/20 02:59:05;;;;;;;3.03;1.50;;;22.60;53.90;;;;;;4951725;28;20254;-58
2022/03/20 03:01:36;;;;;;;3.88;1.48;;;22.60;54.10;;;;;;4951738;28;20659;-58
2022/03/20 03:04:06;;;;;;;2.17;1.10;;;22.70;54.20;;;;;;4951896;28;20203;-58
2022/03/20 03:06:37;;;;;;;2.33;1.23;;;22.70;54.10;;;;;;4951707;28;20265;-58
2022/03/20 03:11:49;;;;;;;3.05;1.10;;;22.80;54.00;;;;;;5333446;23;20467;-50
2022/03/20 03:17:12;;;;;;;3.63;1.13;;;22.80;53.80;;;;;;4977073;28;20712;-53
2022/03/20 03:19:48;;;;;;;1.90;1.23;;;22.90;53.80;;;;;;4988639;28;20704;-54
2022/03/20 03:22:23;;;;;;;2.95;1.40;;;22.90;53.70;;;;;;4988733;28;20590;-51
2022/03/20 03:24:58;;;;;;;2.00;1.10;;;22.90;53.70;;;;;;4987731;28;20870;-53
2022/03/20 03:27:35;;;;;;;3.08;1.40;;;22.90;53.60;;;;;;4988793;28;20571;-49
2022/03/20 03:30:10;;;;;;;2.42;1.30;;;23.00;53.60;;;;;;4988316;28;20220;-50
2022/03/20 03:32:44;;;;;;;3.20;1.45;;;23.00;53.60;;;;;;4988450;28;20523;-56
2022/03/20 03:38:08;;;;;;;3.17;1.45;;;23.00;53.50;;;;;;4987604;28;20232;-54
2022/03/20 03:40:45;;;;;;;2.47;1.10;;;23.10;53.50;;;;;;4988395;28;20199;-56
2022/03/20 03:43:26;;;;;;;2.47;1.35;;;23.00;53.40;;;;;;4988500;28;20540;-53
2022/03/20 03:46:03;;;;;;;1.10;1.00;;;23.10;53.40;;;;;;4987743;28;20204;-53
2022/03/20 03:48:43;;;;;;;2.05;1.10;;;23.10;53.40;;;;;;4988619;28;20229;-53
2022/03/20 03:51:13;;;;;;;2.88;1.40;;;23.10;53.30;;;;;;4987928;28;20211;-53
2022/03/20 03:53:44;;;;;;;1.85;1.10;;;23.20;53.30;;;;;;4989431;28;20271;-56
2022/03/20 03:56:15;;;;;;;2.17;1.10;;;23.20;53.30;;;;;;4989804;28;20221;-56
2022/03/20 03:58:47;;;;;;;1.17;1.05;;;23.20;53.20;;;;;;4989280;28;20256;-54
2022/03/20 04:01:17;;;;;;;1.40;1.00;;;23.20;53.20;;;;;;4989575;28;20549;-55
2022/03/20 04:03:48;;;;;;;2.85;1.30;;;23.30;53.20;;;;;;4988664;28;20740;-55
2022/03/20 04:06:19;;;;;;;1.90;1.23;;;23.30;53.30;;;;;;4988557;28;20300;-57
2022/03/20 04:08:49;;;;;;;2.13;1.23;;;23.30;53.10;;;;;;4989899;28;20291;-57
2022/03/20 04:11:20;;;;;;;3.22;1.30;;;23.30;53.10;;;;;;4989313;28;20209;-51
2022/03/20 04:13:52;;;;;;;3.15;1.30;;;23.30;53.00;;;;;;4994040;28;20193;-54
2022/03/20 04:16:23;;;;;;;3.65;1.27;;;23.30;53.00;;;;;;5010110;28;20271;-56
2022/03/20 04:18:53;;;;;;;1.42;1.00;;;23.40;53.00;;;;;;5009705;28;20200;-56
2022/03/20 04:21:24;;;;;;;2.58;1.13;;;23.40;53.00;;;;;;5008755;28;20201;-55
2022/03/20 04:23:55;;;;;;;2.60;1.23;;;23.40;53.00;;;;;;5008600;28;20201;-56
2022/03/20 04:26:26;;;;;;;1.50;1.10;;;23.40;53.00;;;;;;5008538;28;20220;-56
2022/03/20 04:28:59;;;;;;;2.28;1.23;;;23.40;53.00;;;;;;5007967;28;20703;-56
2022/03/20 04:31:31;;;;;;;1.80;1.17;;;23.40;52.90;;;;;;4992052;28;20197;-62
2022/03/20 04:34:01;;;;;;;1.73;1.05;;;23.40;52.80;;;;;;4988694;28;20267;-54
2022/03/20 04:36:34;;;;;;;3.60;1.30;;;23.50;52.90;;;;;;4988223;28;20210;-56
2022/03/20 04:39:05;;;;;;;2.72;1.35;;;23.50;53.50;;;;;;4988772;28;20687;-56
2022/03/20 04:41:36;;;;;;;1.55;1.13;;;23.50;53.00;;;;;;4988359;28;20194;-56
2022/03/20 04:44:12;;;;;;;1.98;1.20;;;23.50;53.00;;;;;;4988490;28;20622;-56
2022/03/20 04:46:42;;;;;;;2.05;1.08;;;23.50;53.00;;;;;;4988673;28;20680;-56
2022/03/20 05:00:21;;;;;;;1.83;1.10;;;23.50;52.70;;;;;;4987919;28;20220;-55
2022/03/20 05:02:52;;;;;;;2.53;1.10;;;23.50;52.60;;;;;;4988574;28;20268;-56
2022/03/20 05:05:22;;;;;;;1.75;1.30;;;23.50;52.60;;;;;;4989029;28;20764;-55
2022/03/20 05:07:53;;;;;;;2.28;1.20;;;23.50;52.60;;;;;;4988470;28;20221;-56
2022/03/20 05:13:22;;;;;;;1.75;1.10;;;23.50;52.60;;;;;;4991853;28;20208;-56
2022/03/20 05:15:57;;;;;;;1.10;1.00;;;23.50;52.60;;;;;;4990860;28;20209;-55
2022/03/20 05:18:28;;;;;;;1.52;0.90;;;23.50;52.70;;;;;;4992610;28;20201;-56
2022/03/20 05:20:58;;;;;;;2.15;1.30;;;23.50;53.30;;;;;;4992506;28;20708;-54
2022/03/20 05:23:29;;;;;;;1.17;0.82;;;23.50;52.70;;;;;;4992078;28;20326;-56
2022/03/20 05:26:00;;;;;;;2.33;1.10;;;23.50;52.70;;;;;;4991644;28;20748;-56
2022/03/20 05:28:30;;;;;;;2.33;1.20;;;23.50;52.70;;;;;;4991771;28;20225;-56
2022/03/20 05:31:03;;;;;;;2.60;1.27;;;23.50;52.70;;;;;;4991527;28;20193;-56
2022/03/20 05:33:33;;;;;;;1.83;1.33;;;23.50;52.70;;;;;;4992048;28;20198;-56
2022/03/20 05:36:04;;;;;;;2.13;1.35;;;23.50;52.60;;;;;;4992101;28;20248;-54
2022/03/20 05:38:35;;;;;;;1.92;1.50;;;23.50;52.60;;;;;;4991308;28;20204;-56
2022/03/20 05:43:52;;;;;;;2.28;1.10;;;23.50;52.60;;;;;;4991965;28;20212;-54
2022/03/20 05:46:25;;;;;;;2.00;1.10;;;23.50;52.50;;;;;;4992055;28;20248;-56
2022/03/20 05:48:55;;;;;;;2.17;1.27;;;23.50;52.50;;;;;;4991908;28;20229;-56
2022/03/20 05:51:26;;;;;;;1.70;0.93;;;23.50;52.50;;;;;;4991281;28;20198;-56
2022/03/20 05:53:56;;;;;;;1.95;1.08;;;23.50;52.50;;;;;;4990532;28;20817;-56
2022/03/20 05:59:14;;;;;;;1.98;1.10;;;23.50;52.50;;;;;;4991457;28;20207;-55
2022/03/20 06:01:46;;;;;;;1.70;1.13;;;23.50;52.50;;;;;;4991016;28;20190;-56
2022/03/20 06:04:17;;;;;;;1.98;1.08;;;23.50;52.50;;;;;;4991449;28;20665;-56
2022/03/20 06:06:48;;;;;;;3.42;1.30;;;23.50;52.50;;;;;;4991662;28;20249;-56
2022/03/20 06:09:19;;;;;;;1.45;0.90;;;23.40;52.50;;;;;;4992154;28;20217;-55
2022/03/20 06:11:49;;;;;;;1.70;1.13;;;23.40;52.50;;;;;;4991432;28;20657;-56
2022/03/20 06:14:20;;;;;;;1.90;1.30;;;23.40;52.60;;;;;;4991279;28;20252;-56
2022/03/20 06:16:52;;;;;;;1.88;1.20;;;23.40;52.60;;;;;;4990715;28;20287;-54
2022/03/20 06:19:23;;;;;;;1.85;1.13;;;23.40;52.60;;;;;;4991811;28;20197;-56
2022/03/20 06:21:53;;;;;;;2.00;1.10;;;23.40;52.70;;;;;;4990601;28;20204;-52
2022/03/20 06:24:24;;;;;;;2.22;1.13;;;23.40;52.70;;;;;;4991245;28;20197;-55
2022/03/20 06:26:55;;;;;;;2.25;1.20;;;23.40;52.70;;;;;;4990926;28;20213;-53
2022/03/20 06:29:25;;;;;;;2.67;1.35;;;23.40;52.70;;;;;;4990747;28;20767;-55
2022/03/20 06:31:58;;;;;;;2.28;1.17;;;23.40;52.60;;;;;;4991183;28;20583;-56
2022/03/20 06:34:28;;;;;;;2.33;1.50;;;23.40;52.60;;;;;;4990415;28;20197;-57
2022/03/20 06:36:59;;;;;;;2.20;1.52;;;23.40;52.60;;;;;;4990840;28;20913;-55
2022/03/20 06:39:29;;;;;;;1.10;1.00;;;23.30;52.60;;;;;;4991136;28;20556;-56
2022/03/20 06:42:00;;;;;;;3.30;1.25;;;23.30;52.60;;;;;;4990019;28;20201;-56
2022/03/20 06:44:31;;;;;;;1.85;1.27;;;23.30;52.60;;;;;;4990685;28;20272;-56
2022/03/20 06:47:03;;;;;;;2.05;1.35;;;23.30;52.60;;;;;;4990512;28;20214;-57
2022/03/20 06:49:34;;;;;;;2.28;1.23;;;23.30;52.60;;;;;;4990901;28;20229;-56
2022/03/20 06:52:04;;;;;;;2.55;1.10;;;23.30;53.20;;;;;;4991261;28;20198;-56
2022/03/20 06:54:35;;;;;;;2.88;1.30;;;23.20;52.60;;;;;;4991025;28;20234;-56
2022/03/20 06:57:06;;;;;;;3.15;1.30;;;23.20;52.60;;;;;;4990529;28;20213;-56
2022/03/20 06:59:36;;;;;;;2.33;1.27;;;23.20;52.70;;;;;;4990502;28;20197;-54
2022/03/20 07:02:09;;;;;;;2.13;1.08;;;23.20;52.60;;;;;;4990570;28;20245;-54
2022/03/20 07:04:39;;;;;;;2.35;1.50;;;23.20;52.70;;;;;;4990148;28;20197;-57
2022/03/20 07:07:10;;;;;;;1.75;1.13;;;23.20;52.70;;;;;;4992041;28;20214;-57
2022/03/20 07:09:40;;;;;;;3.60;1.88;;;23.10;52.70;;;;;;4992956;28;20225;-56
2022/03/20 07:12:12;;;;;;;2.75;1.23;;;23.10;52.70;;;;;;4991580;28;20251;-56
2022/03/20 07:14:43;;;;;;;2.72;1.33;;;23.10;52.70;;;;;;4991654;28;20198;-56
2022/03/20 07:17:18;;;;;;;2.53;1.42;;;23.10;52.70;;;;;;4991481;28;20218;-56
2022/03/20 07:19:49;;;;;;;2.92;1.40;;;23.10;52.80;;;;;;4990566;28;20219;-55
2022/03/20 07:22:20;;;;;;;2.40;1.30;;;23.10;52.70;;;;;;4991196;28;20210;-56
2022/03/20 07:24:51;;;;;;;2.88;1.50;;;23.10;52.80;;;;;;4991706;28;20591;-56
2022/03/20 07:30:09;;;;;;;2.72;1.35;;;23.00;52.70;;;;;;4991461;28;20231;-56
2022/03/20 07:32:41;;;;;;;3.58;1.70;;;23.00;52.80;;;;;;4991450;28;20189;-55
2022/03/20 07:35:12;;;;;;;2.78;1.50;;;23.00;52.80;;;;;;4990911;28;20201;-56
2022/03/20 07:37:43;;;;;;;2.65;1.52;;;23.00;52.80;;;;;;4990881;28;20267;-56
2022/03/20 07:40:14;;;;;;;1.80;1.20;;;22.90;52.70;;;;;;4990980;28;20201;-56
2022/03/20 07:42:45;;;;;;;3.72;1.58;;;22.90;52.70;;;;;;4990656;28;20205;-56
2022/03/20 07:45:15;;;;;;;2.97;1.10;;;22.90;52.80;;;;;;4990808;28;20244;-55
2022/03/20 07:47:48;;;;;;;1.83;1.23;;;22.90;52.80;;;;;;4990682;28;20272;-56
2022/03/20 07:50:19;;;;;;;4.00;1.52;;;22.90;52.80;;;;;;4990869;28;20225;-56
2022/03/20 07:52:50;;;;;;;2.70;1.30;;;22.80;52.80;;;;;;4990629;28;20193;-54
2022/03/20 07:55:21;;;;;;;2.53;1.55;;;22.80;52.80;;;;;;4989995;28;20193;-57
2022/03/20 07:57:52;;;;;;;3.03;1.67;;;22.80;52.90;;;;;;4991053;28;20312;-56
2022/03/20 08:00:22;;;;;;;3.15;1.60;;;22.80;52.90;;;;;;4991220;28;20472;-56
2022/03/20 08:02:55;;;;;;;2.15;1.40;;;22.80;52.90;;;;;;4990879;28;20205;-55
2022/03/20 08:05:27;;;;;;;2.30;1.73;;;22.80;52.90;;;;;;4990377;28;20878;-56
2022/03/20 08:07:58;;;;;;;1.70;1.33;;;22.80;52.90;;;;;;4989735;28;20221;-51
2022/03/20 08:10:28;;;;;;;2.85;1.38;;;22.70;52.80;;;;;;4990877;28;20229;-56
2022/03/20 08:12:59;;;;;;;3.05;1.50;;;22.70;52.80;;;;;;4990635;28;20292;-52
2022/03/20 08:15:30;;;;;;;1.60;1.40;;;22.70;52.90;;;;;;4990521;28;20194;-54
2022/03/20 08:18:04;;;;;;;2.78;1.50;;;22.70;52.90;;;;;;4989846;28;20263;-56
2022/03/20 08:20:35;;;;;;;4.35;1.60;;;22.70;52.90;;;;;;4990585;28;20197;-55
2022/03/20 08:23:06;;;;;;;2.47;1.50;;;22.60;52.90;;;;;;4990461;28;20307;-56
2022/03/20 08:25:38;;;;;;;2.25;1.55;;;22.60;52.90;;;;;;4990206;28;20264;-56
2022/03/20 08:28:09;;;;;;;3.55;1.55;;;22.60;52.90;;;;;;4990181;28;20300;-56
2022/03/20 08:30:40;;;;;;;2.13;1.30;;;22.60;53.00;;;;;;4990424;28;20231;-56
2022/03/20 08:33:12;;;;;;;2.10;1.40;;;22.60;53.00;;;;;;4990144;28;20201;-56
2022/03/20 08:35:44;;;;;;;2.58;1.50;;;22.50;52.90;;;;;;4989975;28;20205;-55
2022/03/20 08:38:14;;;;;;;1.98;1.30;;;22.50;53.00;;;;;;4970777;28;20286;-55
2022/03/20 08:40:45;;;;;;;2.38;1.40;;;22.50;53.00;;;;;;4988247;28;20240;-56
2022/03/20 08:43:16;;;;;;;2.25;1.30;;;22.50;53.00;;;;;;4989956;28;20206;-56
2022/03/20 08:45:47;;;;;;;2.38;1.48;;;22.50;53.00;;;;;;4990984;28;20197;-55
2022/03/20 08:48:20;;;;;;;3.65;1.50;;;22.50;53.00;;;;;;4990662;28;20193;-56
2022/03/20 08:50:50;;;;;;;2.20;1.30;;;22.50;53.00;;;;;;4993794;28;20233;-55
2022/03/20 08:53:22;;;;;;;2.70;1.35;;;22.40;53.00;;;;;;4981815;28;20201;-55
2022/03/20 08:55:53;;;;;;;1.85;1.20;;;22.40;53.00;;;;;;4994417;28;20197;-56
2022/03/20 08:58:24;;;;;;;1.95;1.27;;;22.40;53.00;;;;;;4994172;28;20256;-55
2022/03/20 09:00:57;;;;;;;1.70;1.30;;;22.40;53.00;;;;;;4994226;28;20201;-55
2022/03/20 09:03:30;;;;;;;1.95;1.40;;;22.40;53.00;;;;;;4994496;28;20197;-55
2022/03/20 09:06:00;;;;;;;2.42;1.50;;;22.30;53.00;;;;;;4993684;28;20617;-53
2022/03/20 09:08:31;;;;;;;1.88;1.08;;;22.30;53.00;;;;;;4993896;28;20202;-55
2022/03/20 09:11:02;;;;;;;1.25;1.10;;;22.30;53.00;;;;;;4994056;28;20236;-55
2022/03/20 09:13:32;;;;;;;1.40;1.30;;;22.20;53.00;;;;;;4990795;28;20206;-56
2022/03/20 09:19:07;;;;;;;2.53;1.40;;;22.20;53.10;;;;;;4992672;28;20584;-56
2022/03/20 09:21:39;;;;;;;3.22;1.45;;;22.20;53.10;;;;;;4992332;28;20236;-55
2022/03/20 09:24:10;;;;;;;2.30;1.30;;;22.10;53.10;;;;;;4992099;28;20193;-56
2022/03/20 09:26:41;;;;;;;2.28;1.33;;;22.10;53.20;;;;;;4991040;28;20881;-56
2022/03/20 09:29:14;;;;;;;3.13;1.48;;;22.10;53.30;;;;;;4991675;28;20646;-55
2022/03/20 09:31:45;;;;;;;2.22;1.35;;;22.10;53.30;;;;;;4992725;28;20212;-56
2022/03/20 09:34:18;;;;;;;2.17;1.52;;;22.10;53.30;;;;;;4992966;28;20206;-55
2022/03/20 09:36:48;;;;;;;2.60;1.42;;;22.10;53.30;;;;;;4991610;28;20218;-55
2022/03/20 09:39:19;;;;;;;2.13;1.50;;;22.00;53.20;;;;;;4992467;28;20193;-55
2022/03/20 09:41:51;;;;;;;2.33;1.40;;;22.00;53.20;;;;;;4991995;28;20205;-55
2022/03/20 09:44:26;;;;;;;1.80;1.30;;;22.00;53.20;;;;;;4991580;28;20198;-55
2022/03/20 09:46:57;;;;;;;2.83;1.60;;;22.00;53.20;;;;;;4991097;28;20220;-56
2022/03/20 09:49:30;;;;;;;2.65;1.38;;;21.90;53.20;;;;;;4992155;28;20202;-53
2022/03/20 09:52:01;;;;;;;2.38;1.48;;;21.90;53.20;;;;;;4991690;28;20256;-55
2022/03/20 09:54:31;;;;;;;2.42;1.20;;;21.90;53.20;;;;;;4991583;28;20239;-55
2022/03/20 09:57:06;;;;;;;2.25;1.55;;;21.90;53.20;;;;;;4990476;28;20300;-54
2022/03/20 09:59:38;;;;;;;2.58;1.60;;;21.90;53.20;;;;;;4991591;28;20203;-55
2022/03/20 10:02:10;;;;;;;2.28;1.27;;;21.80;53.10;;;;;;4991338;28;20697;-54
2022/03/20 10:07:40;;;;;;;2.10;1.30;;;21.80;53.10;;;;;;5106454;27;20605;-56
2022/03/20 10:10:16;;;;;;;2.22;1.40;;;21.80;53.80;;;;;;5105648;28;20200;-54
2022/03/20 10:12:47;;;;;;;1.85;1.30;;;21.80;53.20;;;;;;5104657;28;20199;-55
2022/03/20 10:15:34;;;;;;;2.30;1.40;;;21.70;53.20;;;;;;5105786;28;20190;-55
2022/03/20 10:18:16;;;;;;;1.77;1.38;;;21.70;53.20;;;;;;5105794;28;20233;-54
2022/03/20 10:20:48;;;;;;;2.55;1.40;;;21.70;53.20;;;;;;5106050;28;20208;-55
2022/03/20 10:23:36;;;;;;;1.38;1.15;;;21.70;53.30;;;;;;5105381;28;20251;-55
2022/03/20 10:26:09;;;;;;;1.33;1.20;;;21.60;53.20;;;;;;5105490;28;20308;-55
2022/03/20 10:28:40;;;;;;;2.47;1.35;;;21.60;53.20;;;;;;5106136;28;20242;-55
2022/03/20 10:31:12;;;;;;;2.38;1.30;;;21.60;53.20;;;;;;5105004;28;20278;-53
2022/03/20 10:33:43;;;;;;;2.03;1.30;;;21.60;53.20;;;;;;5105729;28;20221;-52
2022/03/20 10:36:16;;;;;;;2.20;1.35;;;21.60;53.30;;;;;;5101577;28;20274;-55
2022/03/20 10:38:50;;;;;;;2.70;1.20;;;21.50;53.20;;;;;;5105597;28;20217;-56
2022/03/20 10:41:22;;;;;;;1.83;1.38;;;21.50;53.20;;;;;;5105866;28;20270;-55
2022/03/20 10:43:54;;;;;;;2.28;1.35;;;21.50;53.30;;;;;;5106164;28;20286;-55
2022/03/20 10:46:26;;;;;;;1.92;1.30;;;21.40;53.20;;;;;;5098916;28;20742;-54
2022/03/20 10:48:57;;;;;;;1.80;1.25;;;21.50;53.30;;;;;;5105270;28;20197;-55
2022/03/20 10:51:41;;;;;;;2.10;1.20;;;21.40;53.30;;;;;;5105553;28;20228;-55
2022/03/20 10:54:15;;;;;;;2.45;1.30;;;21.40;53.40;;;;;;5104175;28;20657;-55
2022/03/20 10:56:57;;;;;;;2.97;1.38;;;21.40;53.30;;;;;;5105267;28;20642;-56
2022/03/20 10:59:29;;;;;;;1.80;1.00;;;21.40;53.30;;;;;;5105388;28;20651;-56
2022/03/20 11:02:00;;;;;;;1.65;1.10;;;21.30;53.20;;;;;;5105023;28;20194;-56
2022/03/20 11:04:31;;;;;;;1.90;1.20;;;21.30;53.30;;;;;;5104484;28;20202;-55
2022/03/20 11:07:06;;;;;;;1.50;1.13;;;21.30;53.30;;;;;;5104656;28;20322;-55
2022/03/20 11:09:38;;;;;;;1.80;1.13;;;21.30;53.30;;;;;;5089817;28;20190;-51
2022/03/20 11:12:13;;;;;;;1.77;1.30;;;21.20;53.30;;;;;;5087671;28;20276;-56
2022/03/20 11:14:47;;;;;;;1.95;1.20;;;21.20;53.30;;;;;;5086237;28;20198;-57
2022/03/20 11:17:19;;;;;;;1.20;1.10;;;21.20;53.30;;;;;;5081698;28;20276;-57
2022/03/20 11:19:55;;;;;;;1.80;1.20;;;21.20;53.30;;;;;;5072612;28;20237;-57
2022/03/20 11:22:26;;;;;;;1.38;1.00;;;21.20;53.30;;;;;;5072760;28;20639;-57
2022/03/20 11:24:59;;;;;;;1.55;1.25;;;21.20;53.30;;;;;;5072358;28;20199;-57
2022/03/20 11:27:32;;;;;;;1.85;1.30;;;21.20;53.40;;;;;;5072494;28;20646;-56
2022/03/20 11:30:06;;;;;;;1.77;1.08;;;21.10;53.30;;;;;;5072576;28;20195;-57
2022/03/20 11:32:38;;;;;;;1.75;1.30;;;21.10;53.40;;;;;;5072304;28;20201;-57
2022/03/20 11:35:09;;;;;;;2.80;1.10;;;21.10;53.40;;;;;;5072218;28;20202;-55
2022/03/20 11:37:48;;;;;;;1.55;1.10;;;21.10;53.40;;;;;;5072224;28;20218;-55
2022/03/20 11:40:22;;;;;;;1.75;1.30;;;21.00;53.40;;;;;;5052303;28;20191;-52
2022/03/20 11:43:13;;;;;;;1.25;1.13;;;21.00;53.40;;;;;;5067668;28;20901;-58
2022/03/20 11:45:44;;;;;;;2.17;1.33;;;21.00;53.40;;;;;;5071995;28;20195;-57
2022/03/20 11:48:18;;;;;;;2.60;1.33;;;21.00;53.40;;;;;;5071504;28;20211;-57
2022/03/20 11:50:49;;;;;;;1.65;1.08;;;20.90;53.30;;;;;;5071507;28;20202;-57
2022/03/20 11:53:31;;;;;;;1.98;1.20;;;20.90;53.40;;;;;;5071266;28;20210;-58
2022/03/20 11:56:03;;;;;;;1.35;1.02;;;20.90;53.40;;;;;;5071692;28;20198;-57
2022/03/20 11:58:41;;;;;;;2.35;1.10;;;20.90;53.40;;;;;;5071956;28;20225;-57
2022/03/20 12:01:12;;;;;;;1.85;1.15;;;20.80;53.40;;;;;;5071822;28;20198;-57
2022/03/20 12:04:04;;;;;;;1.05;0.93;;;20.80;53.40;;;;;;5071826;28;20195;-58
2022/03/20 12:07:05;;;;;;;2.67;1.33;;;20.80;53.50;;;;;;5071657;28;20230;-58
2022/03/20 12:10:15;;;;;;;1.25;1.00;;;20.80;53.40;;;;;;5071889;28;20247;-58
2022/03/20 12:13:10;;;;;;;1.52;0.93;;;20.70;53.40;;;;;;5051640;28;20199;-57
2022/03/20 12:15:46;;;;;;;1.23;1.00;;;20.70;53.40;;;;;;5071235;28;20241;-57
2022/03/20 12:18:16;;;;;;;1.70;1.10;;;20.70;53.40;;;;;;5071089;28;20198;-58
2022/03/20 12:21:07;;;;;;;3.40;1.20;;;20.70;53.50;;;;;;5071202;28;20252;-57
2022/03/20 12:23:43;;;;;;;1.63;1.10;;;20.70;53.50;;;;;;5071164;28;20686;-58
2022/03/20 12:26:44;;;;;;;1.80;0.98;;;20.70;53.50;;;;;;5071154;28;20277;-57
2022/03/20 12:29:37;;;;;;;1.60;1.20;;;20.60;53.50;;;;;;5070298;28;20537;-59
2022/03/20 12:32:11;;;;;;;1.27;1.10;;;20.60;53.50;;;;;;5070931;28;20646;-58
2022/03/20 12:34:42;;;;;;;1.13;1.00;;;20.60;54.10;;;;;;5070949;28;20314;-57
2022/03/20 12:37:38;;;;;;;1.48;1.13;;;20.60;53.50;;;;;;5070289;28;20211;-58
2022/03/20 12:40:14;;;;;;;1.52;1.00;;;20.60;53.60;;;;;;5070405;28;20194;-57
2022/03/20 12:42:46;;;;;;;2.10;1.17;;;20.60;53.60;;;;;;5071243;28;20252;-58
2022/03/20 12:45:20;;;;;;;1.25;1.08;;;20.50;53.60;;;;;;5070608;28;20195;-58
2022/03/20 12:47:59;;;;;;;1.30;0.90;;;20.50;53.60;;;;;;5070986;28;20276;-58
2022/03/20 12:50:31;;;;;;;1.30;1.00;;;20.50;53.60;;;;;;5070934;28;20198;-57
2022/03/20 12:53:07;;;;;;;1.77;0.80;;;20.50;53.60;;;;;;5070498;28;20194;-57
2022/03/20 12:55:39;;;;;;;1.85;1.20;;;20.50;53.60;;;;;;5070532;28;20654;-58
2022/03/20 12:58:14;;;;;;;1.20;0.90;;;20.40;53.60;;;;;;5070916;28;20291;-58
2022/03/20 13:00:47;;;;;;;1.95;1.10;;;20.40;53.60;;;;;;5071123;28;20277;-58
2022/03/20 13:03:18;;;;;;;1.60;0.93;;;20.40;53.70;;;;;;5070863;28;20199;-57
2022/03/20 13:05:53;;;;;;;1.80;1.10;;;20.40;53.60;;;;;;5070689;28;20677;-56
2022/03/20 13:08:24;;;;;;;1.13;0.95;;;20.40;53.60;;;;;;5070252;28;20226;-57
2022/03/20 13:10:58;;;;;;;1.67;1.08;;;20.40;53.70;;;;;;5050801;28;20699;-59
2022/03/20 13:13:33;;;;;;;1.27;0.77;;;20.30;53.60;;;;;;5050286;28;20600;-58
2022/03/20 13:16:08;;;;;;;1.45;1.10;;;20.30;53.60;;;;;;5050036;28;20195;-54
2022/03/20 13:18:38;;;;;;;1.63;1.08;;;20.30;53.60;;;;;;5061256;28;20203;-58
2022/03/20 13:21:09;;;;;;;1.55;1.08;;;20.30;53.60;;;;;;5050404;28;20683;-58
2022/03/20 13:23:40;;;;;;;1.40;0.90;;;20.30;53.60;;;;;;5051289;28;20562;-58
2022/03/20 13:26:10;;;;;;;1.98;1.17;;;20.30;53.70;;;;;;5070327;28;20195;-57
2022/03/20 13:28:45;;;;;;;1.77;0.98;;;20.30;53.70;;;;;;5070279;28;20198;-58
2022/03/20 13:31:18;;;;;;;2.53;1.27;;;20.20;53.70;;;;;;5070036;28;20205;-58
2022/03/20 13:33:54;;;;;;;1.13;1.00;;;20.20;53.70;;;;;;5069773;28;20191;-57
2022/03/20 13:36:26;;;;;;;1.73;0.98;;;20.20;53.70;;;;;;5070077;28;20628;-55
2022/03/20 13:38:58;;;;;;;1.33;1.20;;;20.20;53.70;;;;;;5069872;28;20249;-57
2022/03/20 13:41:30;;;;;;;1.45;1.10;;;20.20;53.70;;;;;;5069937;28;20285;-57
2022/03/20 13:44:04;;;;;;;1.10;0.93;;;20.10;53.70;;;;;;5070182;28;20191;-57
2022/03/20 13:46:37;;;;;;;1.50;1.10;;;20.10;53.70;;;;;;5069855;28;20280;-54
2022/03/20 13:49:10;;;;;;;1.25;1.00;;;20.10;53.70;;;;;;5070030;28;20244;-58
2022/03/20 13:51:41;;;;;;;1.30;1.08;;;20.10;53.70;;;;;;5070281;28;20205;-56
2022/03/20 13:54:19;;;;;;;0.70;0.70;;;20.10;53.80;;;;;;5069905;28;20200;-57
2022/03/20 13:56:51;;;;;;;1.33;1.08;;;20.10;53.70;;;;;;5070041;28;20280;-58